Time;durP1;ratioP1;P1;durP2;ratioP2;P2;SDS_P1;SDS_P2;PMS_P1;PMS_P2;Temp;Humidity;BMP_temperature;BMP_pressure;BME280_temperature;BME280_humidity;BME280_pressure;Samples;Min_cycle;Max_cycle;Signal;HPM_P1;HPM_P2
2023/12/20 00:04:56;;;;;;;10.10;4.90;;;;;;;6.71;100.00;99797.22;217664;1293;139098;-86
2023/12/20 00:09:57;;;;;;;9.10;5.00;;;;;;;6.70;100.00;99790.34;217105;1296;139677;-90
2023/12/20 00:14:57;;;;;;;8.20;4.40;;;;;;;6.70;100.00;99781.67;217371;1293;139265;-90
2023/12/20 00:19:57;;;;;;;9.10;4.30;;;;;;;6.69;100.00;99781.65;216914;1293;139477;-87
2023/12/20 00:24:58;;;;;;;8.70;4.60;;;;;;;6.68;100.00;99776.23;217659;1293;138859;-90
2023/12/20 00:29:58;;;;;;;8.10;4.20;;;;;;;6.68;100.00;99773.05;217062;1293;139975;-89
2023/12/20 00:34:59;;;;;;;9.60;5.10;;;;;;;6.68;100.00;99772.02;217607;1293;138646;-92
2023/12/20 00:39:59;;;;;;;10.50;4.60;;;;;;;6.68;100.00;99770.69;216929;1293;139379;-87
2023/12/20 00:45:00;;;;;;;8.70;4.60;;;;;;;6.67;100.00;99772.23;217506;1293;138875;-89
2023/12/20 00:50:00;;;;;;;8.90;4.60;;;;;;;6.66;100.00;99774.50;216939;1293;140141;-91
2023/12/20 00:55:01;;;;;;;8.20;4.10;;;;;;;6.68;100.00;99766.95;217403;1294;139124;-90
2023/12/20 01:00:01;;;;;;;8.90;4.20;;;;;;;6.68;100.00;99764.39;217056;1293;139674;-90
2023/12/20 01:05:02;;;;;;;9.30;4.30;;;;;;;6.66;100.00;99763.33;217417;1293;138879;-91
2023/12/20 01:10:03;;;;;;;11.60;4.40;;;;;;;6.66;100.00;99759.95;216944;1293;139710;-90
2023/12/20 01:15:04;;;;;;;8.20;4.10;;;;;;;6.66;100.00;99753.31;217440;1293;138879;-91
2023/12/20 01:20:05;;;;;;;8.20;4.10;;;;;;;6.65;100.00;99750.73;217149;1293;139262;-89
2023/12/20 01:25:06;;;;;;;9.50;4.40;;;;;;;6.65;100.00;99753.54;217434;1293;138600;-91
2023/12/20 01:30:07;;;;;;;11.30;5.40;;;;;;;6.65;100.00;99741.18;217149;1293;139836;-88
2023/12/20 01:35:08;;;;;;;12.80;5.30;;;;;;;6.64;100.00;99736.48;217449;1293;139909;-92
2023/12/20 01:40:09;;;;;;;11.00;4.70;;;;;;;6.63;100.00;99736.79;216762;1293;139601;-91
2023/12/20 01:45:09;;;;;;;9.90;4.80;;;;;;;6.62;100.00;99724.67;217284;1295;139517;-92
2023/12/20 01:50:10;;;;;;;9.50;4.80;;;;;;;6.62;100.00;99712.40;216907;1293;140564;-92
2023/12/20 01:55:13;;;;;;;7.10;3.90;;;;;;;6.61;100.00;99713.00;217540;1293;138503;-91
2023/12/20 02:00:14;;;;;;;7.50;4.10;;;;;;;6.61;100.00;99709.26;216797;1293;139856;-91
2023/12/20 02:05:16;;;;;;;8.30;4.00;;;;;;;6.59;100.00;99710.17;217438;1293;138391;-91
2023/12/20 02:10:17;;;;;;;7.30;3.70;;;;;;;6.57;100.00;99705.61;216884;1295;139445;-92
2023/12/20 02:15:18;;;;;;;7.80;4.00;;;;;;;6.55;100.00;99701.44;217436;1298;139616;-91
2023/12/20 02:20:19;;;;;;;8.00;4.30;;;;;;;6.53;100.00;99701.25;216887;1293;139540;-89
2023/12/20 02:25:19;;;;;;;7.80;4.50;;;;;;;6.50;100.00;99697.14;217427;1296;139633;-89
2023/12/20 02:30:20;;;;;;;8.70;4.20;;;;;;;6.49;100.00;99687.14;216868;1293;141599;-91
2023/12/20 02:35:21;;;;;;;9.90;4.60;;;;;;;6.47;100.00;99688.98;217494;1293;96278;-94
2023/12/20 02:40:21;;;;;;;7.00;4.00;;;;;;;6.47;100.00;99688.20;216963;1293;140135;-90
2023/12/20 02:45:22;;;;;;;7.10;4.00;;;;;;;6.45;100.00;99681.83;217416;1293;138974;-89
2023/12/20 02:50:23;;;;;;;9.30;4.60;;;;;;;6.43;100.00;99678.21;217173;1293;139346;-91
2023/12/20 02:55:23;;;;;;;7.50;4.40;;;;;;;6.41;100.00;99679.04;217468;1293;139367;-92
2023/12/20 03:00:25;;;;;;;8.50;4.90;;;;;;;6.40;100.00;99681.21;216836;1296;139883;-92
2023/12/20 03:05:26;;;;;;;10.10;5.10;;;;;;;6.39;100.00;99677.77;217566;1293;96773;-92
2023/12/20 03:10:37;;;;;;;8.90;5.20;;;;;;;6.38;100.00;99672.27;216908;1293;139732;-93
2023/12/20 03:15:42;;;;;;;9.10;5.30;;;;;;;6.36;100.00;99669.74;217687;1293;138607;-92
2023/12/20 03:20:42;;;;;;;8.30;4.60;;;;;;;6.34;100.00;99662.84;217110;1293;139985;-91
2023/12/20 03:25:44;;;;;;;8.90;4.70;;;;;;;6.33;100.00;99659.41;217420;1293;139694;-91
2023/12/20 03:30:44;;;;;;;8.90;4.10;;;;;;;6.31;100.00;99655.16;216948;1293;139685;-91
2023/12/20 03:35:44;;;;;;;8.50;4.50;;;;;;;6.30;100.00;99651.23;217581;1293;96178;-92
2023/12/20 03:40:45;;;;;;;8.40;4.80;;;;;;;6.29;100.00;99658.02;216997;1293;139513;-91
2023/12/20 03:45:46;;;;;;;10.10;5.20;;;;;;;6.28;100.00;99661.97;217488;1294;139481;-89
2023/12/20 03:50:47;;;;;;;7.90;4.30;;;;;;;6.27;100.00;99658.54;216886;1296;141951;-91
2023/12/20 03:55:47;;;;;;;8.50;4.60;;;;;;;6.26;100.00;99657.88;217594;1293;139605;-90
2023/12/20 04:00:47;;;;;;;8.50;4.80;;;;;;;6.24;100.00;99653.96;217126;1293;139477;-89
2023/12/20 04:05:48;;;;;;;8.00;4.60;;;;;;;6.23;100.00;99651.67;217636;1293;103229;-88
2023/12/20 04:10:48;;;;;;;9.00;4.70;;;;;;;6.23;100.00;99651.52;217126;1293;139892;-89
2023/12/20 04:15:50;;;;;;;8.60;5.00;;;;;;;6.21;100.00;99651.86;217520;1293;139234;-92
2023/12/20 04:20:52;;;;;;;9.70;4.50;;;;;;;6.22;100.00;99649.00;216891;1293;139841;-92
2023/12/20 04:25:53;;;;;;;7.40;4.40;;;;;;;6.23;100.00;99654.48;217401;1293;137582;-89
2023/12/20 04:30:53;;;;;;;8.60;4.60;;;;;;;6.22;100.00;99646.27;217133;1293;140337;-90
2023/12/20 04:35:53;;;;;;;8.70;4.10;;;;;;;6.21;100.00;99642.90;217463;1297;96460;-90
2023/12/20 04:40:54;;;;;;;7.40;4.00;;;;;;;6.21;100.00;99641.48;216991;1293;139343;-92
2023/12/20 04:45:54;;;;;;;6.80;3.70;;;;;;;6.21;100.00;99634.93;217413;1293;138934;-90
2023/12/20 04:50:55;;;;;;;7.20;4.00;;;;;;;6.20;100.00;99636.71;216913;1293;139929;-90
2023/12/20 04:55:55;;;;;;;7.30;3.80;;;;;;;6.19;100.00;99632.63;217440;1293;138690;-88
2023/12/20 05:00:55;;;;;;;8.10;3.90;;;;;;;6.18;100.00;99638.95;217087;1293;139772;-89
2023/12/20 05:05:56;;;;;;;7.80;4.00;;;;;;;6.18;100.00;99646.69;217663;1293;96060;-87
2023/12/20 05:10:56;;;;;;;8.10;4.50;;;;;;;6.18;100.00;99646.98;216941;1293;139896;-90
2023/12/20 05:15:56;;;;;;;7.50;4.30;;;;;;;6.18;100.00;99641.38;217534;1295;138612;-88
2023/12/20 05:20:57;;;;;;;7.30;3.90;;;;;;;6.20;100.00;99651.93;217141;1293;140257;-88
2023/12/20 05:25:58;;;;;;;8.80;4.60;;;;;;;6.21;100.00;99650.00;217426;1293;138804;-89
2023/12/20 05:30:59;;;;;;;8.50;4.70;;;;;;;6.21;100.00;99649.06;216869;1293;139908;-89
2023/12/20 05:35:59;;;;;;;9.30;4.80;;;;;;;6.21;100.00;99648.05;217717;1296;96062;-89
2023/12/20 05:40:59;;;;;;;7.40;3.90;;;;;;;6.21;100.00;99638.52;216829;1293;140370;-89
2023/12/20 05:46:00;;;;;;;7.90;3.70;;;;;;;6.21;100.00;99631.04;217403;1296;139298;-89
2023/12/20 05:51:00;;;;;;;7.90;4.00;;;;;;;6.21;100.00;99635.48;217073;1293;140002;-89
2023/12/20 05:56:00;;;;;;;6.00;3.30;;;;;;;6.21;100.00;99637.35;217428;1295;139909;-89
2023/12/20 06:01:04;;;;;;;8.00;3.50;;;;;;;6.21;100.00;99641.71;217086;1294;140233;-89
2023/12/20 06:06:06;;;;;;;8.80;3.90;;;;;;;6.22;100.00;99634.70;217670;1293;106975;-88
2023/12/20 06:11:07;;;;;;;9.40;4.20;;;;;;;6.21;100.00;99634.77;217108;1293;139743;-89
2023/12/20 06:16:07;;;;;;;7.20;3.20;;;;;;;6.19;100.00;99632.94;217503;1293;138876;-89
2023/12/20 06:21:08;;;;;;;7.00;3.70;;;;;;;6.16;100.00;99629.93;217158;1294;140029;-88
2023/12/20 06:26:08;;;;;;;7.80;4.00;;;;;;;6.14;100.00;99629.27;217685;1293;139052;-89
2023/12/20 06:31:08;;;;;;;9.10;4.40;;;;;;;6.11;100.00;99632.19;217162;1293;139774;-88
2023/12/20 06:36:15;;;;;;;10.70;4.30;;;;;;;6.09;100.00;99641.60;217688;1293;108613;-87
2023/12/20 06:41:16;;;;;;;8.50;4.20;;;;;;;6.04;100.00;99641.14;216861;1293;141193;-87
2023/12/20 06:46:17;;;;;;;8.60;4.20;;;;;;;6.00;100.00;99654.25;217556;1293;138781;-88
2023/12/20 06:51:19;;;;;;;9.70;5.00;;;;;;;5.95;100.00;99657.61;217099;1295;139791;-87
2023/12/20 06:56:19;;;;;;;10.00;5.10;;;;;;;5.90;100.00;99656.82;217644;1293;139621;-88
2023/12/20 07:01:20;;;;;;;12.20;4.80;;;;;;;5.86;100.00;99662.36;217093;1293;141123;-87
2023/12/20 07:06:20;;;;;;;8.90;4.70;;;;;;;5.82;100.00;99681.02;217556;1293;139024;-85
2023/12/20 07:11:21;;;;;;;9.50;4.90;;;;;;;5.79;100.00;99681.64;216937;1295;140205;-88
2023/12/20 07:16:22;;;;;;;10.20;5.10;;;;;;;5.75;100.00;99684.91;217587;1293;138502;-88
2023/12/20 07:21:23;;;;;;;11.90;5.80;;;;;;;5.73;100.00;99693.46;217085;1293;140509;-89
2023/12/20 07:26:23;;;;;;;12.50;5.80;;;;;;;5.73;100.00;99698.36;217630;1293;139383;-87
2023/12/20 07:31:24;;;;;;;9.70;4.20;;;;;;;5.71;100.00;99698.65;217070;1294;140490;-88
2023/12/20 07:36:24;;;;;;;9.50;5.10;;;;;;;5.71;100.00;99702.25;217474;1294;139876;-88
2023/12/20 07:41:24;;;;;;;8.80;4.20;;;;;;;5.72;100.00;99707.10;217057;1293;140243;-89
2023/12/20 07:46:25;;;;;;;9.50;4.60;;;;;;;5.73;100.00;99704.31;217467;1294;139423;-87
2023/12/20 07:51:25;;;;;;;12.30;4.80;;;;;;;5.74;100.00;99704.16;216933;1298;141685;-88
2023/12/20 07:56:26;;;;;;;10.90;4.60;;;;;;;5.75;100.00;99693.89;217461;1293;138892;-87
2023/12/20 08:01:26;;;;;;;9.50;4.60;;;;;;;5.77;100.00;99690.17;216770;1293;140789;-88
2023/12/20 08:06:27;;;;;;;9.30;4.50;;;;;;;5.79;100.00;99685.31;217591;1293;138591;-89
2023/12/20 08:11:28;;;;;;;12.40;4.80;;;;;;;5.82;100.00;99682.02;217018;1295;140081;-88
2023/12/20 08:16:29;;;;;;;14.70;4.80;;;;;;;5.83;100.00;99682.83;217579;1293;139930;-88
2023/12/20 08:21:29;;;;;;;13.70;5.40;;;;;;;5.83;100.00;99673.86;216877;1296;140637;-89
2023/12/20 08:26:30;;;;;;;10.30;5.00;;;;;;;5.83;100.00;99682.59;217209;1294;140342;-89
2023/12/20 08:31:30;;;;;;;11.60;5.30;;;;;;;5.82;100.00;99676.17;216854;1296;140267;-89
2023/12/20 08:36:31;;;;;;;11.60;5.00;;;;;;;5.78;100.00;99683.65;217242;1296;139644;-89
2023/12/20 08:41:31;;;;;;;11.10;4.20;;;;;;;5.74;100.00;99683.33;217033;1297;140243;-89
2023/12/20 08:46:31;;;;;;;8.60;3.50;;;;;;;5.68;100.00;99688.38;217607;1293;138572;-87
2023/12/20 08:51:32;;;;;;;9.90;3.80;;;;;;;5.61;100.00;99679.43;217091;1293;140906;-88
2023/12/20 08:56:33;;;;;;;10.90;3.40;;;;;;;5.59;100.00;99682.35;217558;1295;138603;-89
2023/12/20 09:01:34;;;;;;;7.30;3.20;;;;;;;5.57;100.00;99680.52;216897;1293;139704;-89
2023/12/20 09:06:34;;;;;;;8.60;4.50;;;;;;;5.56;100.00;99680.67;217583;1293;138501;-88
2023/12/20 09:11:34;;;;;;;10.60;4.60;;;;;;;5.55;100.00;99674.86;217031;1293;140219;-89
2023/12/20 09:16:35;;;;;;;10.30;4.30;;;;;;;5.55;100.00;99672.85;217320;1293;139582;-89
2023/12/20 09:21:35;;;;;;;10.60;3.80;;;;;;;5.57;100.00;99668.44;217014;1295;139625;-87
2023/12/20 09:26:36;;;;;;;13.40;5.10;;;;;;;5.61;100.00;99666.08;217614;1293;139742;-92
2023/12/20 09:31:36;;;;;;;11.60;5.20;;;;;;;5.64;100.00;99666.08;216901;1293;140811;-88
2023/12/20 09:36:40;;;;;;;12.00;4.20;;;;;;;5.73;100.00;99660.63;217636;1293;139570;-87
2023/12/20 09:41:47;;;;;;;15.30;4.20;;;;;;;5.86;100.00;99661.58;217152;1295;139996;-90
2023/12/20 09:46:49;;;;;;;;;;;;;;;5.94;100.00;99660.63;217071;1293;315817;-88
2023/12/20 09:51:50;;;;;;;14.60;4.80;;;;;;;5.98;100.00;99654.92;216895;1293;126344;-87
2023/12/20 09:56:51;;;;;;;12.40;5.10;;;;;;;6.02;100.00;99653.20;217318;1294;138794;-88
2023/12/20 10:01:55;;;;;;;11.90;5.00;;;;;;;6.05;100.00;99635.92;216829;1293;139657;-87
2023/12/20 10:06:56;;;;;;;10.90;4.90;;;;;;;6.07;100.00;99627.30;217427;1293;138746;-90
2023/12/20 10:11:57;;;;;;;13.60;4.70;;;;;;;6.08;100.00;99615.36;217078;1292;140553;-88
2023/12/20 10:17:04;;;;;;;13.50;5.20;;;;;;;6.08;100.00;99610.70;217431;1293;139561;-87
2023/12/20 10:22:05;;;;;;;10.10;4.30;;;;;;;6.09;100.00;99602.34;216913;1293;140728;-89
2023/12/20 10:27:07;;;;;;;11.80;4.80;;;;;;;6.08;100.00;99591.81;217489;1293;138901;-89
2023/12/20 10:32:25;;;;;;;14.10;4.50;;;;;;;6.10;100.00;99592.52;217064;1293;140574;-88
2023/12/20 10:37:26;;;;;;;10.60;3.80;;;;;;;6.06;100.00;99588.65;217591;1293;139661;-89
2023/12/20 10:42:27;;;;;;;14.30;6.00;;;;;;;6.03;100.00;99584.94;216971;1293;140460;-89
2023/12/20 10:47:27;;;;;;;12.90;4.30;;;;;;;6.00;100.00;99581.53;217448;1298;96099;-88
2023/12/20 10:52:29;;;;;;;9.00;3.60;;;;;;;5.97;100.00;99573.54;217047;1293;139766;-90
2023/12/20 10:57:30;;;;;;;15.90;3.70;;;;;;;5.94;100.00;99572.30;217349;1294;139649;-91
2023/12/20 11:02:39;;;;;;;10.10;3.00;;;;;;;5.92;100.00;99563.55;217044;1293;140596;-89
2023/12/20 11:07:56;;;;;;;11.80;3.60;;;;;;;5.92;100.00;99554.17;217371;1295;139780;-88
2023/12/20 11:13:17;;;;;;;10.70;3.20;;;;;;;5.89;100.00;99543.45;217046;1293;140008;-93
2023/12/20 11:18:33;;;;;;;13.00;3.50;;;;;;;5.84;100.00;99531.59;217578;1293;96257;-92
2023/12/20 11:23:34;;;;;;;7.30;2.70;;;;;;;5.86;100.00;99527.01;216998;1293;140002;-91
2023/12/20 11:28:34;;;;;;;11.90;3.20;;;;;;;5.85;100.00;99517.63;217418;1293;138983;-94
2023/12/20 11:33:39;;;;;;;10.30;3.20;;;;;;;5.84;100.00;99511.92;216847;1296;139887;-91
2023/12/20 11:38:54;;;;;;;12.30;3.70;;;;;;;5.85;100.00;99498.13;217249;1293;138727;-93
2023/12/20 11:43:56;;;;;;;9.90;3.30;;;;;;;5.85;100.00;99496.96;216871;1293;139501;-90
2023/12/20 11:48:56;;;;;;;12.10;3.00;;;;;;;5.84;100.00;99493.76;217461;1293;138979;-90
2023/12/20 11:53:57;;;;;;;11.90;3.80;;;;;;;5.84;100.00;99486.11;216919;1293;139869;-93
2023/12/20 11:58:59;;;;;;;14.90;3.90;;;;;;;5.84;100.00;99485.86;217440;1293;138762;-90
2023/12/20 12:04:04;;;;;;;10.90;3.00;;;;;;;5.81;100.00;99479.20;217039;1293;140204;-89
2023/12/20 12:09:05;;;;;;;10.90;3.40;;;;;;;5.81;100.00;99467.89;217444;1293;138981;-90
2023/12/20 12:14:07;;;;;;;12.60;3.60;;;;;;;5.81;100.00;99455.11;216837;1293;140093;-90
2023/12/20 12:19:07;;;;;;;10.70;3.40;;;;;;;5.81;100.00;99452.76;217643;1293;138867;-88
2023/12/20 12:24:09;;;;;;;9.70;4.00;;;;;;;5.79;100.00;99441.18;217158;1293;139578;-88
2023/12/20 12:29:09;;;;;;;11.60;3.10;;;;;;;5.79;100.00;99438.67;217384;1293;139477;-87
2023/12/20 12:34:10;;;;;;;13.00;3.60;;;;;;;5.77;100.00;99426.39;217015;1293;140069;-89
2023/12/20 12:39:15;;;;;;;12.00;3.50;;;;;;;5.75;100.00;99416.14;217447;1293;139301;-87
2023/12/20 12:44:15;;;;;;;11.00;3.30;;;;;;;5.76;100.00;99418.02;216832;1293;139561;-88
2023/12/20 12:49:28;;;;;;;17.60;3.90;;;;;;;5.74;100.00;99403.95;217308;1293;139798;-89
2023/12/20 12:54:29;;;;;;;15.60;2.90;;;;;;;5.73;100.00;99402.54;216882;1293;141293;-91
2023/12/20 12:59:30;;;;;;;11.90;3.60;;;;;;;5.72;100.00;99404.79;217267;1293;138472;-88
2023/12/20 13:04:31;;;;;;;12.00;4.30;;;;;;;5.72;100.00;99402.45;216735;1293;140036;-90
2023/12/20 13:09:31;;;;;;;17.90;4.70;;;;;;;5.72;100.00;99400.96;217272;1293;139346;-88
2023/12/20 13:14:34;;;;;;;12.20;3.50;;;;;;;5.72;100.00;99387.16;216946;1293;139371;-90
2023/12/20 13:19:35;;;;;;;14.80;3.70;;;;;;;5.71;100.00;99378.89;217355;1293;139179;-90
2023/12/20 13:24:35;;;;;;;12.50;2.90;;;;;;;5.69;100.00;99364.42;216968;1294;139843;-88
2023/12/20 13:29:36;;;;;;;13.80;3.40;;;;;;;5.69;100.00;99365.29;217603;1293;97304;-87
2023/12/20 13:34:36;;;;;;;8.10;2.80;;;;;;;5.70;100.00;99362.39;216945;1293;139499;-88
2023/12/20 13:39:36;;;;;;;15.30;3.80;;;;;;;5.69;100.00;99368.64;217488;1293;139092;-90
2023/12/20 13:44:37;;;;;;;15.70;3.80;;;;;;;5.69;100.00;99358.73;216855;1293;139633;-91
2023/12/20 13:49:37;;;;;;;12.10;4.60;;;;;;;5.70;100.00;99351.18;217442;1293;139023;-91
2023/12/20 13:54:38;;;;;;;17.80;3.30;;;;;;;5.71;100.00;99336.77;216905;1293;140217;-91
2023/12/20 13:59:39;;;;;;;14.10;3.60;;;;;;;5.73;100.00;99339.05;217448;1293;96833;-88
2023/12/20 14:04:40;;;;;;;15.90;3.90;;;;;;;5.73;100.00;99339.67;216916;1293;139190;-90
2023/12/20 14:09:45;;;;;;;15.70;3.90;;;;;;;5.73;100.00;99335.55;217519;1293;139572;-89
2023/12/20 14:14:46;;;;;;;16.30;4.20;;;;;;;5.74;100.00;99322.83;216972;1293;139317;-89
2023/12/20 14:19:46;;;;;;;11.50;3.80;;;;;;;5.75;100.00;99318.48;216897;1293;142801;-92
2023/12/20 14:24:48;;;;;;;16.50;3.50;;;;;;;5.75;100.00;99309.36;217496;1293;139001;-89
2023/12/20 14:29:49;;;;;;;10.80;3.60;;;;;;;5.76;100.00;99306.88;216952;1293;139216;-86
2023/12/20 14:34:50;;;;;;;12.30;3.60;;;;;;;5.77;100.00;99301.59;217502;1293;139278;-90
2023/12/20 14:39:51;;;;;;;15.00;4.10;;;;;;;5.77;100.00;99294.18;216902;1293;141718;-90
2023/12/20 14:44:54;;;;;;;13.40;4.00;;;;;;;5.77;100.00;99292.22;217406;1293;139332;-92
2023/12/20 14:50:12;;;;;;;19.10;5.30;;;;;;;5.75;100.00;99279.95;216895;1293;140530;-94
2023/12/20 14:55:12;;;;;;;11.40;4.20;;;;;;;5.72;100.00;99273.60;217373;1293;139653;-92
2023/12/20 15:00:16;;;;;;;13.30;4.00;;;;;;;5.67;100.00;99271.60;216929;1293;140243;-88
2023/12/20 15:05:19;;;;;;;11.00;3.10;;;;;;;5.63;100.00;99268.27;217369;1293;138716;-90
2023/12/20 15:10:21;;;;;;;13.10;4.20;;;;;;;5.60;100.00;99259.43;216876;1293;140514;-90
2023/12/20 15:15:25;;;;;;;10.70;3.70;;;;;;;5.59;100.00;99262.14;217603;1293;138873;-93
2023/12/20 15:20:27;;;;;;;12.90;4.30;;;;;;;5.56;100.00;99257.67;216860;1293;140101;-91
2023/12/20 15:25:28;;;;;;;13.00;4.50;;;;;;;5.54;100.00;99257.56;217410;1293;139320;-89
2023/12/20 15:30:31;;;;;;;12.50;4.00;;;;;;;5.53;100.00;99253.02;217104;1293;140133;-89
2023/12/20 15:35:37;;;;;;;10.50;4.00;;;;;;;5.51;100.00;99259.08;217491;1293;139743;-93
2023/12/20 15:40:37;;;;;;;6.20;2.70;;;;;;;5.48;100.00;99258.35;216889;1293;139811;-90
2023/12/20 15:45:49;;;;;;;3.90;1.80;;;;;;;5.37;100.00;99270.52;217532;1293;137711;-91
2023/12/20 15:50:50;;;;;;;4.00;1.00;;;;;;;5.21;100.00;99264.77;216752;1295;139305;-95
2023/12/20 16:01:00;;;;;;;7.10;2.60;;;;;;;4.91;100.00;99284.67;216900;1296;139468;-91
2023/12/20 16:06:01;;;;;;;6.10;2.30;;;;;;;4.81;100.00;99302.02;217599;1296;96376;-91
2023/12/20 16:11:02;;;;;;;4.20;1.70;;;;;;;4.64;100.00;99312.34;216750;1296;139379;-92
2023/12/20 16:16:03;;;;;;;3.20;1.00;;;;;;;4.44;100.00;99334.96;217401;1294;138672;-91
2023/12/20 16:21:04;;;;;;;3.00;1.30;;;;;;;4.26;100.00;99291.39;216844;1294;139357;-91
2023/12/20 16:26:05;;;;;;;4.90;1.90;;;;;;;4.15;100.00;99276.48;217327;1296;139214;-91
2023/12/20 16:31:05;;;;;;;3.30;1.30;;;;;;;4.06;100.00;99281.77;216770;1295;139921;-91
2023/12/20 16:36:09;;;;;;;5.00;1.70;;;;;;;3.98;100.00;99283.86;217467;1294;96262;-91
2023/12/20 16:41:10;;;;;;;6.10;1.70;;;;;;;3.89;100.00;99285.64;216849;1295;139716;-93
2023/12/20 16:46:11;;;;;;;9.60;2.20;;;;;;;3.82;100.00;99286.67;217488;1296;138949;-92
2023/12/20 16:51:12;;;;;;;6.00;1.70;;;;;;;3.76;100.00;99293.45;216887;1294;139246;-91
2023/12/20 16:56:12;;;;;;;5.00;1.60;;;;;;;3.71;100.00;99297.88;217493;1295;138615;-91
2023/12/20 17:01:15;;;;;;;4.90;1.70;;;;;;;3.69;100.00;99309.10;216766;1295;140333;-91
2023/12/20 17:06:15;;;;;;;4.10;1.60;;;;;;;3.69;100.00;99313.38;217512;1295;96754;-90
2023/12/20 17:11:16;;;;;;;5.90;2.00;;;;;;;3.71;100.00;99311.41;216898;1295;139509;-92
2023/12/20 17:16:17;;;;;;;6.60;2.30;;;;;;;3.74;100.00;99313.73;217407;1295;138456;-90
2023/12/20 17:21:18;;;;;;;8.10;3.10;;;;;;;3.79;100.00;99309.45;216918;1294;139999;-91
2023/12/20 17:26:19;;;;;;;8.80;3.20;;;;;;;3.86;100.00;99305.24;217197;1295;138577;-93
2023/12/20 17:31:20;;;;;;;7.20;3.00;;;;;;;3.92;100.00;99306.23;216809;1296;139685;-91
2023/12/20 17:36:20;;;;;;;12.40;3.10;;;;;;;3.98;100.00;99310.63;217516;1294;108584;-90
2023/12/20 17:41:21;;;;;;;8.20;2.80;;;;;;;4.03;100.00;99308.45;216898;1294;139778;-92
2023/12/20 17:46:21;;;;;;;11.00;2.80;;;;;;;4.07;100.00;99305.50;217336;1298;138978;-90
2023/12/20 17:51:22;;;;;;;9.70;2.70;;;;;;;4.08;100.00;99306.15;217037;1295;140401;-91
2023/12/20 17:56:23;;;;;;;8.10;2.40;;;;;;;4.08;100.00;99305.06;217529;1295;138713;-91
2023/12/20 18:01:24;;;;;;;11.50;2.60;;;;;;;4.06;100.00;99308.53;216894;1295;140174;-90
2023/12/20 18:06:24;;;;;;;6.60;1.80;;;;;;;4.06;100.00;99319.33;217538;1293;96036;-88
2023/12/20 18:11:25;;;;;;;11.70;2.30;;;;;;;4.06;100.00;99335.04;216825;1295;139937;-88
2023/12/20 18:16:25;;;;;;;7.00;2.20;;;;;;;4.07;100.00;99350.31;217388;1295;139295;-88
2023/12/20 18:21:26;;;;;;;10.00;2.80;;;;;;;4.08;100.00;99351.02;216855;1296;139349;-92
2023/12/20 18:26:27;;;;;;;7.20;2.40;;;;;;;4.07;100.00;99357.84;217369;1296;138867;-92
2023/12/20 18:31:28;;;;;;;9.50;2.30;;;;;;;4.06;100.00;99363.34;216835;1295;139545;-91
2023/12/20 18:36:29;;;;;;;6.50;2.20;;;;;;;4.05;100.00;99367.30;217347;1294;97805;-89
2023/12/20 18:41:29;;;;;;;9.20;2.10;;;;;;;4.03;100.00;99369.04;216845;1295;139829;-92
2023/12/20 18:46:30;;;;;;;9.00;2.60;;;;;;;4.02;100.00;99366.77;217512;1295;139208;-89
2023/12/20 18:51:30;;;;;;;12.10;4.00;;;;;;;4.01;100.00;99370.17;216731;1295;139495;-89
2023/12/20 18:56:31;;;;;;;9.20;2.70;;;;;;;4.01;100.00;99381.92;217309;1297;139038;-90
2023/12/20 19:01:31;;;;;;;9.50;3.00;;;;;;;4.01;100.00;99388.39;216767;1296;139852;-91
2023/12/20 19:06:35;;;;;;;10.40;2.90;;;;;;;4.01;100.00;99383.02;217476;1295;96180;-91
2023/12/20 19:11:36;;;;;;;8.30;3.20;;;;;;;3.99;100.00;99376.13;216928;1296;139413;-90
2023/12/20 19:16:37;;;;;;;14.50;3.00;;;;;;;3.97;100.00;99375.45;217304;1294;138946;-90
2023/12/20 19:21:38;;;;;;;13.50;3.00;;;;;;;3.94;100.00;99377.73;216925;1294;141469;-92
2023/12/20 19:26:39;;;;;;;9.00;2.60;;;;;;;3.92;100.00;99372.39;217549;1294;139403;-89
2023/12/20 19:31:40;;;;;;;12.50;3.10;;;;;;;3.89;100.00;99368.22;216927;1294;139853;-93
2023/12/20 19:36:40;;;;;;;12.70;3.20;;;;;;;3.87;100.00;99367.48;217248;1295;139493;-90
2023/12/20 19:41:41;;;;;;;8.60;2.50;;;;;;;3.84;100.00;99368.81;216979;1295;139909;-90
2023/12/20 19:46:42;;;;;;;11.70;3.60;;;;;;;3.83;100.00;99379.99;217260;1296;138531;-92
2023/12/20 19:51:42;;;;;;;10.80;3.10;;;;;;;3.84;100.00;99381.73;216892;1295;139517;-90
2023/12/20 19:56:43;;;;;;;11.30;2.90;;;;;;;3.86;100.00;99378.42;217467;1296;139132;-91
2023/12/20 20:01:44;;;;;;;11.10;3.50;;;;;;;3.88;100.00;99373.02;216669;1295;140488;-90
2023/12/20 20:06:45;;;;;;;16.60;4.40;;;;;;;3.89;100.00;99370.16;217499;1295;140003;-88
2023/12/20 20:11:46;;;;;;;10.40;3.80;;;;;;;3.90;100.00;99365.59;216852;1293;140271;-89
2023/12/20 20:16:48;;;;;;;17.90;5.00;;;;;;;3.90;100.00;99364.51;217056;1295;139368;-89
2023/12/20 20:21:48;;;;;;;11.30;3.40;;;;;;;3.91;100.00;99358.30;216847;1295;141424;-89
2023/12/20 20:26:50;;;;;;;17.40;3.60;;;;;;;3.93;100.00;99369.38;217429;1296;139294;-89
2023/12/20 20:31:50;;;;;;;11.30;3.00;;;;;;;3.93;100.00;99369.30;216837;1295;139936;-91
2023/12/20 20:36:51;;;;;;;15.90;3.60;;;;;;;3.91;100.00;99363.52;217484;1295;138766;-91
2023/12/20 20:41:52;;;;;;;21.20;4.00;;;;;;;3.88;100.00;99359.88;217021;1294;138792;-92
2023/12/20 20:46:52;;;;;;;10.40;3.30;;;;;;;3.82;100.00;99368.40;217480;1296;139166;-89
2023/12/20 20:51:53;;;;;;;12.50;3.50;;;;;;;3.76;100.00;99378.60;216941;1294;139844;-90
2023/12/20 20:56:54;;;;;;;13.50;3.90;;;;;;;3.71;100.00;99387.35;217319;1296;138854;-90
2023/12/20 21:01:55;;;;;;;14.40;3.20;;;;;;;3.70;100.00;99396.35;216824;1296;139690;-89
2023/12/20 21:06:57;;;;;;;17.40;4.50;;;;;;;3.71;100.00;99406.95;217475;1296;139241;-89
2023/12/20 21:11:57;;;;;;;16.60;4.40;;;;;;;3.73;100.00;99407.30;216844;1296;139668;-92
2023/12/20 21:16:58;;;;;;;18.80;4.50;;;;;;;3.76;100.00;99404.88;217496;1296;138695;-89
2023/12/20 21:21:58;;;;;;;13.30;4.60;;;;;;;3.79;100.00;99398.41;216978;1294;139854;-89
2023/12/20 21:26:59;;;;;;;15.30;3.80;;;;;;;3.82;100.00;99392.33;217368;1296;139325;-91
2023/12/20 21:31:59;;;;;;;16.20;3.60;;;;;;;3.84;100.00;99384.23;216882;1295;139787;-90
2023/12/20 21:37:00;;;;;;;14.30;3.50;;;;;;;3.88;100.00;99381.35;217429;1296;139415;-94
2023/12/20 21:42:01;;;;;;;14.70;3.60;;;;;;;3.93;100.00;99376.23;216917;1295;139677;-89
2023/12/20 21:47:01;;;;;;;12.10;3.50;;;;;;;3.98;100.00;99378.20;217288;1296;242370;-89
2023/12/20 21:52:02;;;;;;;12.10;3.60;;;;;;;4.03;100.00;99372.31;216952;1295;140741;-90
2023/12/20 21:57:05;;;;;;;14.50;3.70;;;;;;;4.08;100.00;99364.71;217499;1294;140129;-90
2023/12/20 22:02:07;;;;;;;11.50;3.70;;;;;;;4.12;100.00;99369.38;216972;1295;140280;-89
2023/12/20 22:07:07;;;;;;;17.80;3.90;;;;;;;4.17;100.00;99369.63;217289;1296;138729;-89
2023/12/20 22:12:08;;;;;;;15.60;4.30;;;;;;;4.21;100.00;99363.40;217033;1296;139766;-90
2023/12/20 22:17:10;;;;;;;18.20;3.90;;;;;;;4.24;100.00;99349.38;217410;1296;139157;-91
2023/12/20 22:22:10;;;;;;;14.00;4.00;;;;;;;4.27;100.00;99349.67;216757;1294;140196;-91
2023/12/20 22:27:11;;;;;;;15.20;3.80;;;;;;;4.29;100.00;99342.79;217310;1297;139654;-90
2023/12/20 22:32:12;;;;;;;12.10;3.70;;;;;;;4.32;100.00;99333.98;216838;1295;140298;-89
2023/12/20 22:37:14;;;;;;;17.70;4.50;;;;;;;4.34;100.00;99324.91;217361;1295;139790;-94
2023/12/20 22:42:15;;;;;;;17.10;4.00;;;;;;;4.37;100.00;99316.70;216901;1295;140596;-89
2023/12/20 22:47:15;;;;;;;11.20;3.90;;;;;;;4.36;100.00;99312.27;217439;1293;139252;-89
2023/12/20 22:52:16;;;;;;;17.70;3.70;;;;;;;4.37;100.00;99309.80;216885;1296;140136;-90
2023/12/20 22:57:17;;;;;;;14.00;3.80;;;;;;;4.38;100.00;99310.59;217523;1295;138719;-90
2023/12/20 23:02:17;;;;;;;12.00;3.50;;;;;;;4.38;100.00;99304.92;216920;1295;139936;-90
2023/12/20 23:07:18;;;;;;;14.90;4.10;;;;;;;4.39;100.00;99292.54;217448;1296;139250;-90